sensor_id;sensor_type;location;lat;lon;timestamp;P1;durP1;ratioP1;P2;durP2;ratioP2
14766;SDS011;7475;53.558;9.970;2024-03-23T00:56:03;24.23;;;4.65;;
14766;SDS011;7475;53.558;9.970;2024-03-23T00:58:29;25.70;;;4.88;;
14766;SDS011;7475;53.558;9.970;2024-03-23T01:00:54;22.63;;;4.45;;
14766;SDS011;7475;53.558;9.970;2024-03-23T01:03:20;23.30;;;4.30;;
14766;SDS011;7475;53.558;9.970;2024-03-23T01:05:45;24.02;;;5.70;;
14766;SDS011;7475;53.558;9.970;2024-03-23T01:08:10;25.15;;;5.82;;
14766;SDS011;7475;53.558;9.970;2024-03-23T01:10:35;28.23;;;4.85;;
14766;SDS011;7475;53.558;9.970;2024-03-23T01:13:01;24.67;;;4.95;;
14766;SDS011;7475;53.558;9.970;2024-03-23T01:15:26;28.85;;;5.90;;
14766;SDS011;7475;53.558;9.970;2024-03-23T01:17:51;28.07;;;5.70;;
14766;SDS011;7475;53.558;9.970;2024-03-23T01:20:16;29.42;;;6.68;;
14766;SDS011;7475;53.558;9.970;2024-03-23T01:22:42;28.83;;;5.35;;
14766;SDS011;7475;53.558;9.970;2024-03-23T01:25:07;26.70;;;5.05;;
14766;SDS011;7475;53.558;9.970;2024-03-23T01:27:32;17.52;;;4.22;;
14766;SDS011;7475;53.558;9.970;2024-03-23T01:29:57;24.42;;;4.78;;
14766;SDS011;7475;53.558;9.970;2024-03-23T01:32:23;26.73;;;4.50;;
14766;SDS011;7475;53.558;9.970;2024-03-23T01:34:48;26.15;;;4.57;;
14766;SDS011;7475;53.558;9.970;2024-03-23T01:37:13;27.02;;;4.50;;
14766;SDS011;7475;53.558;9.970;2024-03-23T01:39:38;23.00;;;5.10;;
14766;SDS011;7475;53.558;9.970;2024-03-23T01:42:03;23.80;;;4.63;;
14766;SDS011;7475;53.558;9.970;2024-03-23T01:44:28;25.30;;;4.95;;
14766;SDS011;7475;53.558;9.970;2024-03-23T01:46:54;29.02;;;5.32;;
14766;SDS011;7475;53.558;9.970;2024-03-23T01:49:19;26.98;;;4.47;;
14766;SDS011;7475;53.558;9.970;2024-03-23T01:51:45;24.85;;;5.28;;
14766;SDS011;7475;53.558;9.970;2024-03-23T01:54:10;22.50;;;4.90;;
14766;SDS011;7475;53.558;9.970;2024-03-23T01:56:35;24.77;;;4.95;;
14766;SDS011;7475;53.558;9.970;2024-03-23T01:59:01;32.30;;;5.15;;
14766;SDS011;7475;53.558;9.970;2024-03-23T02:01:26;29.33;;;6.13;;
14766;SDS011;7475;53.558;9.970;2024-03-23T02:03:52;25.83;;;6.03;;
14766;SDS011;7475;53.558;9.970;2024-03-23T02:06:17;26.90;;;4.80;;
14766;SDS011;7475;53.558;9.970;2024-03-23T02:08:43;21.65;;;4.75;;
14766;SDS011;7475;53.558;9.970;2024-03-23T02:11:08;26.45;;;4.55;;
14766;SDS011;7475;53.558;9.970;2024-03-23T02:13:33;27.70;;;5.53;;
14766;SDS011;7475;53.558;9.970;2024-03-23T02:15:58;27.13;;;4.72;;
14766;SDS011;7475;53.558;9.970;2024-03-23T02:18:23;25.70;;;4.38;;
14766;SDS011;7475;53.558;9.970;2024-03-23T02:20:48;23.77;;;5.80;;
14766;SDS011;7475;53.558;9.970;2024-03-23T02:23:17;25.30;;;5.17;;
14766;SDS011;7475;53.558;9.970;2024-03-23T02:25:45;30.15;;;5.13;;
14766;SDS011;7475;53.558;9.970;2024-03-23T02:28:10;25.98;;;5.90;;
14766;SDS011;7475;53.558;9.970;2024-03-23T02:30:35;34.15;;;5.47;;
14766;SDS011;7475;53.558;9.970;2024-03-23T02:33:01;21.23;;;5.15;;
14766;SDS011;7475;53.558;9.970;2024-03-23T02:35:26;29.10;;;5.45;;
14766;SDS011;7475;53.558;9.970;2024-03-23T02:37:51;35.60;;;5.32;;
14766;SDS011;7475;53.558;9.970;2024-03-23T02:40:16;21.60;;;4.40;;
14766;SDS011;7475;53.558;9.970;2024-03-23T02:42:42;22.70;;;4.95;;
14766;SDS011;7475;53.558;9.970;2024-03-23T02:45:07;24.23;;;5.20;;
14766;SDS011;7475;53.558;9.970;2024-03-23T02:47:32;25.05;;;4.32;;
14766;SDS011;7475;53.558;9.970;2024-03-23T02:49:58;29.15;;;5.20;;
14766;SDS011;7475;53.558;9.970;2024-03-23T02:52:23;18.80;;;4.13;;
14766;SDS011;7475;53.558;9.970;2024-03-23T02:54:48;24.88;;;4.53;;
14766;SDS011;7475;53.558;9.970;2024-03-23T02:57:13;28.60;;;5.43;;
14766;SDS011;7475;53.558;9.970;2024-03-23T02:59:38;30.60;;;4.95;;
14766;SDS011;7475;53.558;9.970;2024-03-23T03:02:04;23.08;;;4.72;;
14766;SDS011;7475;53.558;9.970;2024-03-23T03:04:30;25.95;;;5.05;;
14766;SDS011;7475;53.558;9.970;2024-03-23T03:06:55;21.95;;;3.92;;
14766;SDS011;7475;53.558;9.970;2024-03-23T03:09:20;31.23;;;4.63;;
14766;SDS011;7475;53.558;9.970;2024-03-23T03:11:46;26.75;;;4.85;;
14766;SDS011;7475;53.558;9.970;2024-03-23T03:14:11;22.10;;;4.45;;
14766;SDS011;7475;53.558;9.970;2024-03-23T03:16:36;21.42;;;4.47;;
14766;SDS011;7475;53.558;9.970;2024-03-23T03:19:01;26.52;;;5.60;;
14766;SDS011;7475;53.558;9.970;2024-03-23T03:21:27;25.98;;;4.25;;
14766;SDS011;7475;53.558;9.970;2024-03-23T03:23:52;27.92;;;4.38;;
14766;SDS011;7475;53.558;9.970;2024-03-23T03:26:17;22.00;;;4.57;;
14766;SDS011;7475;53.558;9.970;2024-03-23T03:28:42;24.73;;;5.17;;
14766;SDS011;7475;53.558;9.970;2024-03-23T03:31:08;25.00;;;4.60;;
14766;SDS011;7475;53.558;9.970;2024-03-23T03:33:33;24.67;;;4.20;;
14766;SDS011;7475;53.558;9.970;2024-03-23T03:35:58;27.80;;;4.97;;
14766;SDS011;7475;53.558;9.970;2024-03-23T03:38:24;23.75;;;4.85;;
14766;SDS011;7475;53.558;9.970;2024-03-23T03:40:49;21.98;;;4.10;;
14766;SDS011;7475;53.558;9.970;2024-03-23T03:43:14;27.88;;;5.13;;
14766;SDS011;7475;53.558;9.970;2024-03-23T03:45:39;21.00;;;4.28;;
14766;SDS011;7475;53.558;9.970;2024-03-23T03:48:05;21.75;;;4.03;;
14766;SDS011;7475;53.558;9.970;2024-03-23T03:50:30;25.50;;;4.28;;
14766;SDS011;7475;53.558;9.970;2024-03-23T03:52:55;26.63;;;4.68;;
14766;SDS011;7475;53.558;9.970;2024-03-23T03:55:20;20.60;;;3.83;;
14766;SDS011;7475;53.558;9.970;2024-03-23T03:57:46;25.85;;;4.32;;
14766;SDS011;7475;53.558;9.970;2024-03-23T04:00:11;20.92;;;4.75;;
14766;SDS011;7475;53.558;9.970;2024-03-23T04:02:37;25.10;;;4.40;;
14766;SDS011;7475;53.558;9.970;2024-03-23T04:05:02;24.13;;;4.82;;
14766;SDS011;7475;53.558;9.970;2024-03-23T04:07:28;23.92;;;4.22;;
14766;SDS011;7475;53.558;9.970;2024-03-23T04:09:53;21.33;;;4.20;;
14766;SDS011;7475;53.558;9.970;2024-03-23T04:12:18;26.30;;;4.05;;
14766;SDS011;7475;53.558;9.970;2024-03-23T04:14:43;21.20;;;4.35;;
14766;SDS011;7475;53.558;9.970;2024-03-23T04:17:09;27.17;;;4.77;;
14766;SDS011;7475;53.558;9.970;2024-03-23T04:19:34;22.38;;;4.43;;
14766;SDS011;7475;53.558;9.970;2024-03-23T04:21:59;29.50;;;5.00;;
14766;SDS011;7475;53.558;9.970;2024-03-23T04:24:24;19.15;;;4.28;;
14766;SDS011;7475;53.558;9.970;2024-03-23T04:26:51;25.25;;;4.38;;
14766;SDS011;7475;53.558;9.970;2024-03-23T04:29:16;24.60;;;4.07;;
14766;SDS011;7475;53.558;9.970;2024-03-23T04:31:41;28.45;;;4.95;;
14766;SDS011;7475;53.558;9.970;2024-03-23T04:34:06;23.60;;;3.88;;
14766;SDS011;7475;53.558;9.970;2024-03-23T04:36:31;22.40;;;4.20;;
14766;SDS011;7475;53.558;9.970;2024-03-23T04:38:57;28.87;;;4.67;;
14766;SDS011;7475;53.558;9.970;2024-03-23T04:41:23;21.45;;;4.10;;
14766;SDS011;7475;53.558;9.970;2024-03-23T04:43:48;22.40;;;4.43;;
14766;SDS011;7475;53.558;9.970;2024-03-23T04:46:13;28.05;;;4.50;;
14766;SDS011;7475;53.558;9.970;2024-03-23T04:48:38;21.13;;;4.13;;
14766;SDS011;7475;53.558;9.970;2024-03-23T04:51:03;25.65;;;4.10;;
14766;SDS011;7475;53.558;9.970;2024-03-23T04:53:29;23.95;;;4.60;;
14766;SDS011;7475;53.558;9.970;2024-03-23T04:55:57;31.27;;;4.90;;
14766;SDS011;7475;53.558;9.970;2024-03-23T04:58:24;26.13;;;4.95;;
14766;SDS011;7475;53.558;9.970;2024-03-23T05:00:55;26.80;;;6.13;;
14766;SDS011;7475;53.558;9.970;2024-03-23T05:03:21;28.10;;;5.03;;
14766;SDS011;7475;53.558;9.970;2024-03-23T05:05:47;25.65;;;4.00;;
14766;SDS011;7475;53.558;9.970;2024-03-23T05:08:12;23.35;;;3.80;;
14766;SDS011;7475;53.558;9.970;2024-03-23T05:10:38;23.27;;;4.32;;
14766;SDS011;7475;53.558;9.970;2024-03-23T05:13:03;20.38;;;4.32;;
14766;SDS011;7475;53.558;9.970;2024-03-23T05:15:28;21.85;;;3.95;;
14766;SDS011;7475;53.558;9.970;2024-03-23T05:17:54;15.57;;;4.03;;
14766;SDS011;7475;53.558;9.970;2024-03-23T05:20:20;22.23;;;4.03;;
14766;SDS011;7475;53.558;9.970;2024-03-23T05:22:45;28.08;;;4.47;;
14766;SDS011;7475;53.558;9.970;2024-03-23T05:25:11;23.90;;;4.47;;
14766;SDS011;7475;53.558;9.970;2024-03-23T05:27:36;24.17;;;4.72;;
14766;SDS011;7475;53.558;9.970;2024-03-23T05:30:01;27.43;;;4.60;;
14766;SDS011;7475;53.558;9.970;2024-03-23T05:32:27;21.88;;;4.90;;
14766;SDS011;7475;53.558;9.970;2024-03-23T05:34:53;20.70;;;4.13;;
14766;SDS011;7475;53.558;9.970;2024-03-23T05:37:21;19.30;;;4.07;;
14766;SDS011;7475;53.558;9.970;2024-03-23T05:39:46;18.08;;;4.25;;
14766;SDS011;7475;53.558;9.970;2024-03-23T05:42:13;24.13;;;3.90;;
14766;SDS011;7475;53.558;9.970;2024-03-23T05:44:39;17.75;;;3.60;;
14766;SDS011;7475;53.558;9.970;2024-03-23T05:47:04;17.97;;;4.20;;
14766;SDS011;7475;53.558;9.970;2024-03-23T05:49:29;17.35;;;4.20;;
14766;SDS011;7475;53.558;9.970;2024-03-23T05:51:55;18.27;;;3.40;;
14766;SDS011;7475;53.558;9.970;2024-03-23T05:54:20;19.52;;;3.85;;
14766;SDS011;7475;53.558;9.970;2024-03-23T05:56:45;21.00;;;3.90;;
14766;SDS011;7475;53.558;9.970;2024-03-23T05:59:10;17.77;;;3.97;;
14766;SDS011;7475;53.558;9.970;2024-03-23T06:01:35;19.70;;;3.92;;
14766;SDS011;7475;53.558;9.970;2024-03-23T06:04:00;20.83;;;3.78;;
14766;SDS011;7475;53.558;9.970;2024-03-23T06:06:26;19.15;;;3.75;;
14766;SDS011;7475;53.558;9.970;2024-03-23T06:08:51;20.65;;;3.78;;
14766;SDS011;7475;53.558;9.970;2024-03-23T06:11:16;21.83;;;3.50;;
14766;SDS011;7475;53.558;9.970;2024-03-23T06:13:42;22.67;;;4.45;;
14766;SDS011;7475;53.558;9.970;2024-03-23T06:16:07;18.90;;;3.50;;
14766;SDS011;7475;53.558;9.970;2024-03-23T06:18:32;20.08;;;3.83;;
14766;SDS011;7475;53.558;9.970;2024-03-23T06:20:57;21.73;;;4.15;;
14766;SDS011;7475;53.558;9.970;2024-03-23T06:23:22;20.15;;;3.17;;
14766;SDS011;7475;53.558;9.970;2024-03-23T06:25:47;19.35;;;3.60;;
14766;SDS011;7475;53.558;9.970;2024-03-23T06:28:13;15.43;;;3.83;;
14766;SDS011;7475;53.558;9.970;2024-03-23T06:30:38;17.95;;;3.95;;
14766;SDS011;7475;53.558;9.970;2024-03-23T06:33:04;18.48;;;3.50;;
14766;SDS011;7475;53.558;9.970;2024-03-23T06:35:30;17.95;;;3.95;;
14766;SDS011;7475;53.558;9.970;2024-03-23T06:37:55;22.30;;;5.40;;
14766;SDS011;7475;53.558;9.970;2024-03-23T06:40:20;17.30;;;4.00;;
14766;SDS011;7475;53.558;9.970;2024-03-23T06:42:46;17.50;;;3.63;;
14766;SDS011;7475;53.558;9.970;2024-03-23T06:45:11;17.97;;;3.73;;
14766;SDS011;7475;53.558;9.970;2024-03-23T06:47:36;23.30;;;3.63;;
14766;SDS011;7475;53.558;9.970;2024-03-23T06:50:02;18.42;;;3.85;;
14766;SDS011;7475;53.558;9.970;2024-03-23T06:52:28;13.80;;;2.72;;
14766;SDS011;7475;53.558;9.970;2024-03-23T06:54:53;17.00;;;3.30;;
14766;SDS011;7475;53.558;9.970;2024-03-23T06:57:18;19.95;;;3.45;;
14766;SDS011;7475;53.558;9.970;2024-03-23T06:59:43;14.35;;;3.33;;
14766;SDS011;7475;53.558;9.970;2024-03-23T07:02:08;16.92;;;3.90;;
14766;SDS011;7475;53.558;9.970;2024-03-23T07:04:34;22.02;;;4.10;;
14766;SDS011;7475;53.558;9.970;2024-03-23T07:06:59;16.60;;;3.72;;
14766;SDS011;7475;53.558;9.970;2024-03-23T07:09:24;16.30;;;2.87;;
14766;SDS011;7475;53.558;9.970;2024-03-23T07:11:51;20.52;;;4.38;;
14766;SDS011;7475;53.558;9.970;2024-03-23T07:14:16;17.63;;;3.55;;
14766;SDS011;7475;53.558;9.970;2024-03-23T07:16:41;19.27;;;4.32;;
14766;SDS011;7475;53.558;9.970;2024-03-23T07:19:06;13.15;;;3.30;;
14766;SDS011;7475;53.558;9.970;2024-03-23T07:21:32;17.05;;;3.97;;
14766;SDS011;7475;53.558;9.970;2024-03-23T07:23:57;19.47;;;3.33;;
14766;SDS011;7475;53.558;9.970;2024-03-23T07:26:22;19.70;;;3.50;;
14766;SDS011;7475;53.558;9.970;2024-03-23T07:28:47;15.27;;;3.50;;
14766;SDS011;7475;53.558;9.970;2024-03-23T07:31:14;15.65;;;3.65;;
14766;SDS011;7475;53.558;9.970;2024-03-23T07:33:43;16.70;;;3.75;;
14766;SDS011;7475;53.558;9.970;2024-03-23T07:36:08;13.77;;;3.03;;
14766;SDS011;7475;53.558;9.970;2024-03-23T07:38:34;13.52;;;3.75;;
14766;SDS011;7475;53.558;9.970;2024-03-23T07:41:05;18.10;;;3.77;;
14766;SDS011;7475;53.558;9.970;2024-03-23T07:43:30;14.95;;;3.80;;
14766;SDS011;7475;53.558;9.970;2024-03-23T07:45:56;17.10;;;3.65;;
14766;SDS011;7475;53.558;9.970;2024-03-23T07:48:21;18.57;;;3.47;;
14766;SDS011;7475;53.558;9.970;2024-03-23T07:50:55;17.25;;;3.60;;
14766;SDS011;7475;53.558;9.970;2024-03-23T07:53:20;15.95;;;3.85;;
14766;SDS011;7475;53.558;9.970;2024-03-23T07:55:51;14.60;;;3.25;;
14766;SDS011;7475;53.558;9.970;2024-03-23T07:58:17;12.20;;;3.00;;
14766;SDS011;7475;53.558;9.970;2024-03-23T08:00:42;11.70;;;3.50;;
14766;SDS011;7475;53.558;9.970;2024-03-23T08:03:07;13.20;;;3.17;;
14766;SDS011;7475;53.558;9.970;2024-03-23T08:05:32;11.93;;;3.80;;
14766;SDS011;7475;53.558;9.970;2024-03-23T08:07:59;13.45;;;3.65;;
14766;SDS011;7475;53.558;9.970;2024-03-23T08:10:24;14.85;;;3.33;;
14766;SDS011;7475;53.558;9.970;2024-03-23T08:12:49;14.82;;;3.70;;
14766;SDS011;7475;53.558;9.970;2024-03-23T08:15:14;14.50;;;3.60;;
14766;SDS011;7475;53.558;9.970;2024-03-23T08:17:39;17.17;;;3.50;;
14766;SDS011;7475;53.558;9.970;2024-03-23T08:20:05;12.33;;;3.30;;
14766;SDS011;7475;53.558;9.970;2024-03-23T08:22:30;12.23;;;3.40;;
14766;SDS011;7475;53.558;9.970;2024-03-23T08:24:55;12.15;;;3.38;;
14766;SDS011;7475;53.558;9.970;2024-03-23T08:27:20;15.43;;;3.60;;
14766;SDS011;7475;53.558;9.970;2024-03-23T08:29:45;13.93;;;3.73;;
14766;SDS011;7475;53.558;9.970;2024-03-23T08:32:11;15.27;;;3.50;;
14766;SDS011;7475;53.558;9.970;2024-03-23T08:34:37;14.27;;;3.75;;
14766;SDS011;7475;53.558;9.970;2024-03-23T08:37:02;13.18;;;3.28;;
14766;SDS011;7475;53.558;9.970;2024-03-23T08:39:27;14.83;;;3.17;;
14766;SDS011;7475;53.558;9.970;2024-03-23T08:41:53;9.02;;;3.30;;
14766;SDS011;7475;53.558;9.970;2024-03-23T08:44:18;10.90;;;3.00;;
14766;SDS011;7475;53.558;9.970;2024-03-23T08:46:43;10.95;;;3.42;;
14766;SDS011;7475;53.558;9.970;2024-03-23T08:49:08;13.47;;;3.37;;
14766;SDS011;7475;53.558;9.970;2024-03-23T08:51:33;11.37;;;2.83;;
14766;SDS011;7475;53.558;9.970;2024-03-23T08:53:58;12.25;;;3.15;;
14766;SDS011;7475;53.558;9.970;2024-03-23T08:56:24;14.83;;;3.73;;
14766;SDS011;7475;53.558;9.970;2024-03-23T08:58:49;15.23;;;3.58;;
14766;SDS011;7475;53.558;9.970;2024-03-23T09:01:14;13.93;;;3.20;;
14766;SDS011;7475;53.558;9.970;2024-03-23T09:03:39;10.45;;;2.90;;
14766;SDS011;7475;53.558;9.970;2024-03-23T09:06:08;14.05;;;3.10;;
14766;SDS011;7475;53.558;9.970;2024-03-23T09:08:34;9.35;;;2.78;;
14766;SDS011;7475;53.558;9.970;2024-03-23T09:11:03;13.70;;;3.22;;
14766;SDS011;7475;53.558;9.970;2024-03-23T09:13:28;12.38;;;3.38;;
14766;SDS011;7475;53.558;9.970;2024-03-23T09:15:53;11.27;;;3.00;;
14766;SDS011;7475;53.558;9.970;2024-03-23T09:18:21;10.48;;;3.28;;
14766;SDS011;7475;53.558;9.970;2024-03-23T09:20:46;6.82;;;2.63;;
14766;SDS011;7475;53.558;9.970;2024-03-23T09:23:11;10.90;;;2.67;;
14766;SDS011;7475;53.558;9.970;2024-03-23T09:25:37;9.07;;;2.33;;
14766;SDS011;7475;53.558;9.970;2024-03-23T09:28:03;10.75;;;3.15;;
14766;SDS011;7475;53.558;9.970;2024-03-23T09:30:28;6.07;;;2.38;;
14766;SDS011;7475;53.558;9.970;2024-03-23T09:32:53;9.57;;;2.43;;
14766;SDS011;7475;53.558;9.970;2024-03-23T09:35:19;7.95;;;2.10;;
14766;SDS011;7475;53.558;9.970;2024-03-23T09:37:44;11.70;;;2.70;;
14766;SDS011;7475;53.558;9.970;2024-03-23T09:40:10;8.07;;;2.53;;
14766;SDS011;7475;53.558;9.970;2024-03-23T09:42:36;15.13;;;3.15;;
14766;SDS011;7475;53.558;9.970;2024-03-23T09:45:01;13.15;;;2.75;;
14766;SDS011;7475;53.558;9.970;2024-03-23T09:47:27;11.23;;;2.80;;
14766;SDS011;7475;53.558;9.970;2024-03-23T09:49:52;8.52;;;2.30;;
14766;SDS011;7475;53.558;9.970;2024-03-23T09:52:18;12.07;;;2.88;;
14766;SDS011;7475;53.558;9.970;2024-03-23T09:54:43;8.05;;;2.67;;
14766;SDS011;7475;53.558;9.970;2024-03-23T09:57:09;11.32;;;2.55;;
14766;SDS011;7475;53.558;9.970;2024-03-23T09:59:34;8.13;;;2.53;;
14766;SDS011;7475;53.558;9.970;2024-03-23T10:02:00;11.25;;;2.88;;
14766;SDS011;7475;53.558;9.970;2024-03-23T10:04:38;9.90;;;2.85;;
14766;SDS011;7475;53.558;9.970;2024-03-23T10:07:10;8.73;;;2.50;;
14766;SDS011;7475;53.558;9.970;2024-03-23T10:09:36;7.30;;;2.40;;
14766;SDS011;7475;53.558;9.970;2024-03-23T10:12:07;8.75;;;2.75;;
14766;SDS011;7475;53.558;9.970;2024-03-23T10:14:33;6.55;;;2.50;;
14766;SDS011;7475;53.558;9.970;2024-03-23T10:17:08;9.65;;;2.22;;
14766;SDS011;7475;53.558;9.970;2024-03-23T10:19:36;7.35;;;2.35;;
14766;SDS011;7475;53.558;9.970;2024-03-23T10:22:01;7.83;;;2.40;;
14766;SDS011;7475;53.558;9.970;2024-03-23T10:24:26;8.50;;;2.30;;
14766;SDS011;7475;53.558;9.970;2024-03-23T10:26:55;8.47;;;2.47;;
14766;SDS011;7475;53.558;9.970;2024-03-23T10:29:20;7.82;;;2.05;;
14766;SDS011;7475;53.558;9.970;2024-03-23T10:31:46;8.03;;;2.00;;
14766;SDS011;7475;53.558;9.970;2024-03-23T10:34:12;6.40;;;2.10;;
14766;SDS011;7475;53.558;9.970;2024-03-23T10:36:37;10.07;;;2.60;;
14766;SDS011;7475;53.558;9.970;2024-03-23T10:39:03;11.82;;;2.45;;
14766;SDS011;7475;53.558;9.970;2024-03-23T10:41:30;13.07;;;3.50;;
14766;SDS011;7475;53.558;9.970;2024-03-23T10:43:56;11.18;;;2.58;;
14766;SDS011;7475;53.558;9.970;2024-03-23T10:46:22;11.55;;;2.35;;
14766;SDS011;7475;53.558;9.970;2024-03-23T10:48:48;14.98;;;2.83;;
14766;SDS011;7475;53.558;9.970;2024-03-23T10:51:13;10.48;;;2.70;;
14766;SDS011;7475;53.558;9.970;2024-03-23T10:53:39;9.23;;;2.60;;
14766;SDS011;7475;53.558;9.970;2024-03-23T10:56:04;10.85;;;2.97;;
14766;SDS011;7475;53.558;9.970;2024-03-23T10:58:31;8.23;;;2.70;;
14766;SDS011;7475;53.558;9.970;2024-03-23T11:00:57;13.20;;;3.00;;
14766;SDS011;7475;53.558;9.970;2024-03-23T11:03:29;11.77;;;2.78;;
14766;SDS011;7475;53.558;9.970;2024-03-23T11:05:55;10.30;;;2.30;;
14766;SDS011;7475;53.558;9.970;2024-03-23T11:08:40;13.30;;;3.28;;
14766;SDS011;7475;53.558;9.970;2024-03-23T11:11:19;8.88;;;2.28;;
14766;SDS011;7475;53.558;9.970;2024-03-23T11:13:47;6.65;;;1.85;;
14766;SDS011;7475;53.558;9.970;2024-03-23T11:16:13;5.90;;;1.88;;
14766;SDS011;7475;53.558;9.970;2024-03-23T11:18:39;6.45;;;1.70;;
14766;SDS011;7475;53.558;9.970;2024-03-23T11:21:04;5.95;;;1.90;;
14766;SDS011;7475;53.558;9.970;2024-03-23T11:23:31;8.98;;;1.83;;
14766;SDS011;7475;53.558;9.970;2024-03-23T11:25:56;6.10;;;1.73;;
14766;SDS011;7475;53.558;9.970;2024-03-23T11:28:21;8.07;;;1.83;;
14766;SDS011;7475;53.558;9.970;2024-03-23T11:30:46;6.95;;;1.80;;
14766;SDS011;7475;53.558;9.970;2024-03-23T11:33:12;6.03;;;2.00;;
14766;SDS011;7475;53.558;9.970;2024-03-23T11:35:37;5.75;;;1.77;;
14766;SDS011;7475;53.558;9.970;2024-03-23T11:38:10;5.15;;;1.67;;
14766;SDS011;7475;53.558;9.970;2024-03-23T11:40:36;6.82;;;1.70;;
14766;SDS011;7475;53.558;9.970;2024-03-23T11:43:02;6.57;;;2.22;;
14766;SDS011;7475;53.558;9.970;2024-03-23T11:45:28;4.95;;;1.95;;
14766;SDS011;7475;53.558;9.970;2024-03-23T11:50:28;6.30;;;2.40;;
14766;SDS011;7475;53.558;9.970;2024-03-23T11:52:53;5.80;;;1.90;;
14766;SDS011;7475;53.558;9.970;2024-03-23T11:55:18;5.75;;;2.40;;
14766;SDS011;7475;53.558;9.970;2024-03-23T11:57:43;5.97;;;1.90;;
14766;SDS011;7475;53.558;9.970;2024-03-23T12:00:21;5.90;;;1.73;;
14766;SDS011;7475;53.558;9.970;2024-03-23T12:02:46;5.65;;;1.85;;
14766;SDS011;7475;53.558;9.970;2024-03-23T12:05:17;4.32;;;1.20;;
14766;SDS011;7475;53.558;9.970;2024-03-23T12:07:43;2.55;;;0.90;;
14766;SDS011;7475;53.558;9.970;2024-03-23T12:10:08;2.75;;;0.70;;
14766;SDS011;7475;53.558;9.970;2024-03-23T12:12:33;4.18;;;1.02;;
14766;SDS011;7475;53.558;9.970;2024-03-23T12:15:02;2.53;;;0.77;;
14766;SDS011;7475;53.558;9.970;2024-03-23T12:17:28;2.65;;;0.70;;
14766;SDS011;7475;53.558;9.970;2024-03-23T12:19:53;1.45;;;0.77;;
14766;SDS011;7475;53.558;9.970;2024-03-23T12:22:21;1.92;;;0.70;;
14766;SDS011;7475;53.558;9.970;2024-03-23T12:24:47;3.95;;;1.30;;
14766;SDS011;7475;53.558;9.970;2024-03-23T12:27:13;1.65;;;0.70;;
14766;SDS011;7475;53.558;9.970;2024-03-23T12:29:38;3.25;;;1.00;;
14766;SDS011;7475;53.558;9.970;2024-03-23T12:32:04;5.47;;;1.20;;
14766;SDS011;7475;53.558;9.970;2024-03-23T12:34:29;2.75;;;1.40;;
14766;SDS011;7475;53.558;9.970;2024-03-23T12:36:57;4.75;;;0.95;;
14766;SDS011;7475;53.558;9.970;2024-03-23T12:39:23;3.30;;;1.00;;
14766;SDS011;7475;53.558;9.970;2024-03-23T12:41:48;3.67;;;0.90;;
14766;SDS011;7475;53.558;9.970;2024-03-23T12:44:13;2.70;;;0.98;;
14766;SDS011;7475;53.558;9.970;2024-03-23T12:46:40;1.73;;;0.90;;
14766;SDS011;7475;53.558;9.970;2024-03-23T12:49:05;1.33;;;0.70;;
14766;SDS011;7475;53.558;9.970;2024-03-23T12:51:31;0.90;;;0.60;;
14766;SDS011;7475;53.558;9.970;2024-03-23T12:53:56;3.42;;;1.15;;
14766;SDS011;7475;53.558;9.970;2024-03-23T12:56:22;2.50;;;1.17;;
14766;SDS011;7475;53.558;9.970;2024-03-23T12:58:47;3.40;;;1.27;;
14766;SDS011;7475;53.558;9.970;2024-03-23T13:01:20;3.90;;;1.05;;
14766;SDS011;7475;53.558;9.970;2024-03-23T13:03:48;4.05;;;0.90;;
14766;SDS011;7475;53.558;9.970;2024-03-23T13:06:14;4.85;;;1.40;;
14766;SDS011;7475;53.558;9.970;2024-03-23T13:08:39;3.80;;;1.20;;
14766;SDS011;7475;53.558;9.970;2024-03-23T13:11:05;4.63;;;1.35;;
14766;SDS011;7475;53.558;9.970;2024-03-23T13:13:31;4.43;;;1.10;;
14766;SDS011;7475;53.558;9.970;2024-03-23T13:15:58;4.70;;;2.08;;
14766;SDS011;7475;53.558;9.970;2024-03-23T13:18:23;2.77;;;0.97;;
14766;SDS011;7475;53.558;9.970;2024-03-23T13:20:48;4.70;;;1.05;;
14766;SDS011;7475;53.558;9.970;2024-03-23T13:23:13;4.80;;;1.30;;
14766;SDS011;7475;53.558;9.970;2024-03-23T13:25:38;4.18;;;1.50;;
14766;SDS011;7475;53.558;9.970;2024-03-23T13:28:04;2.87;;;1.30;;
14766;SDS011;7475;53.558;9.970;2024-03-23T13:30:29;5.60;;;1.52;;
14766;SDS011;7475;53.558;9.970;2024-03-23T13:32:54;3.27;;;1.23;;
14766;SDS011;7475;53.558;9.970;2024-03-23T13:35:20;2.85;;;1.10;;
14766;SDS011;7475;53.558;9.970;2024-03-23T13:37:45;3.65;;;0.95;;
14766;SDS011;7475;53.558;9.970;2024-03-23T13:40:11;3.30;;;1.10;;
14766;SDS011;7475;53.558;9.970;2024-03-23T13:42:36;2.72;;;0.93;;
14766;SDS011;7475;53.558;9.970;2024-03-23T13:45:02;3.17;;;1.30;;
14766;SDS011;7475;53.558;9.970;2024-03-23T13:47:27;2.53;;;0.95;;
14766;SDS011;7475;53.558;9.970;2024-03-23T13:49:53;2.53;;;0.63;;
14766;SDS011;7475;53.558;9.970;2024-03-23T13:52:18;2.13;;;0.80;;
14766;SDS011;7475;53.558;9.970;2024-03-23T13:54:47;1.98;;;0.82;;
14766;SDS011;7475;53.558;9.970;2024-03-23T13:57:12;3.53;;;0.77;;
14766;SDS011;7475;53.558;9.970;2024-03-23T13:59:38;2.25;;;0.70;;
14766;SDS011;7475;53.558;9.970;2024-03-23T14:02:03;1.33;;;0.50;;
14766;SDS011;7475;53.558;9.970;2024-03-23T14:04:29;3.80;;;1.30;;
14766;SDS011;7475;53.558;9.970;2024-03-23T14:06:54;2.97;;;1.13;;
14766;SDS011;7475;53.558;9.970;2024-03-23T14:09:19;1.30;;;0.70;;
14766;SDS011;7475;53.558;9.970;2024-03-23T14:11:47;3.90;;;1.25;;
14766;SDS011;7475;53.558;9.970;2024-03-23T14:14:13;71.85;;;46.50;;
14766;SDS011;7475;53.558;9.970;2024-03-23T14:16:38;9.82;;;3.60;;
14766;SDS011;7475;53.558;9.970;2024-03-23T14:19:03;2.25;;;0.90;;
14766;SDS011;7475;53.558;9.970;2024-03-23T14:21:30;4.53;;;1.17;;
14766;SDS011;7475;53.558;9.970;2024-03-23T14:23:55;3.73;;;0.87;;
14766;SDS011;7475;53.558;9.970;2024-03-23T14:26:21;3.83;;;1.07;;
14766;SDS011;7475;53.558;9.970;2024-03-23T14:28:46;3.22;;;1.00;;
14766;SDS011;7475;53.558;9.970;2024-03-23T14:31:11;4.28;;;1.10;;
14766;SDS011;7475;53.558;9.970;2024-03-23T14:33:37;6.23;;;1.67;;
14766;SDS011;7475;53.558;9.970;2024-03-23T14:36:02;4.40;;;1.73;;
14766;SDS011;7475;53.558;9.970;2024-03-23T14:38:28;4.32;;;1.65;;
14766;SDS011;7475;53.558;9.970;2024-03-23T14:40:53;3.25;;;1.20;;
14766;SDS011;7475;53.558;9.970;2024-03-23T14:43:18;3.22;;;1.25;;
14766;SDS011;7475;53.558;9.970;2024-03-23T14:48:27;7.13;;;1.50;;
14766;SDS011;7475;53.558;9.970;2024-03-23T14:50:56;4.37;;;1.20;;
14766;SDS011;7475;53.558;9.970;2024-03-23T14:53:21;5.15;;;1.27;;
14766;SDS011;7475;53.558;9.970;2024-03-23T14:55:46;4.03;;;1.50;;
14766;SDS011;7475;53.558;9.970;2024-03-23T14:58:14;5.45;;;1.88;;
14766;SDS011;7475;53.558;9.970;2024-03-23T15:00:39;5.50;;;1.50;;
14766;SDS011;7475;53.558;9.970;2024-03-23T15:03:04;4.03;;;1.27;;
14766;SDS011;7475;53.558;9.970;2024-03-23T15:05:30;4.28;;;1.10;;
14766;SDS011;7475;53.558;9.970;2024-03-23T15:07:55;3.00;;;1.20;;
14766;SDS011;7475;53.558;9.970;2024-03-23T15:10:20;4.43;;;0.87;;
14766;SDS011;7475;53.558;9.970;2024-03-23T15:12:45;4.32;;;1.30;;
14766;SDS011;7475;53.558;9.970;2024-03-23T15:15:10;2.42;;;1.20;;
14766;SDS011;7475;53.558;9.970;2024-03-23T15:17:37;2.38;;;0.93;;
14766;SDS011;7475;53.558;9.970;2024-03-23T15:20:06;1.75;;;0.70;;
14766;SDS011;7475;53.558;9.970;2024-03-23T15:22:31;1.65;;;0.70;;
14766;SDS011;7475;53.558;9.970;2024-03-23T15:24:56;2.05;;;0.93;;
14766;SDS011;7475;53.558;9.970;2024-03-23T15:27:22;1.70;;;0.97;;
14766;SDS011;7475;53.558;9.970;2024-03-23T15:29:47;4.93;;;1.75;;
14766;SDS011;7475;53.558;9.970;2024-03-23T15:32:12;4.53;;;1.50;;
14766;SDS011;7475;53.558;9.970;2024-03-23T15:34:39;11.25;;;8.85;;
14766;SDS011;7475;53.558;9.970;2024-03-23T15:37:04;17.35;;;12.45;;
14766;SDS011;7475;53.558;9.970;2024-03-23T15:39:29;6.75;;;3.05;;
14766;SDS011;7475;53.558;9.970;2024-03-23T15:41:54;3.83;;;2.17;;
14766;SDS011;7475;53.558;9.970;2024-03-23T15:44:19;2.97;;;1.20;;